Time;durP1;ratioP1;P1;durP2;ratioP2;P2;SDS_P1;SDS_P2;PMS_P1;PMS_P2;Temp;Humidity;BMP_temperature;BMP_pressure;BME280_temperature;BME280_humidity;BME280_pressure;Samples;Min_cycle;Max_cycle;Signal;HPM_P1;HPM_P2
2021/04/08 00:00:42;;;;;;;753.72;78.20;;;1.20;99.90;;;;;;5065806;28;20391;-46
2021/04/08 00:03:08;;;;;;;740.63;75.38;;;1.30;99.90;;;;;;5062006;28;20412;-45
2021/04/08 00:05:34;;;;;;;736.53;74.10;;;1.30;99.90;;;;;;5064682;28;20892;-46
2021/04/08 00:08:00;;;;;;;736.97;73.85;;;1.30;99.90;;;;;;5063523;28;20399;-48
2021/04/08 00:10:26;;;;;;;741.77;74.40;;;1.30;99.90;;;;;;5061959;28;20378;-45
2021/04/08 00:12:53;;;;;;;741.10;73.95;;;1.20;99.90;;;;;;5067845;28;20413;-46
2021/04/08 00:15:19;;;;;;;748.67;76.93;;;1.30;99.90;;;;;;5063445;28;20398;-46
2021/04/08 00:17:45;;;;;;;754.85;80.03;;;1.20;99.90;;;;;;5063861;28;20905;-46
2021/04/08 00:20:17;;;;;;;757.35;79.80;;;1.10;99.90;;;;;;5061261;28;20864;-47
2021/04/08 00:22:43;;;;;;;757.30;79.97;;;1.00;99.90;;;;;;5062972;28;20395;-46
2021/04/08 00:25:10;;;;;;;752.95;78.68;;;0.90;99.90;;;;;;5069010;28;20397;-46
2021/04/08 00:27:36;;;;;;;756.07;79.97;;;0.80;99.90;;;;;;5062322;28;20421;-46
2021/04/08 00:30:03;;;;;;;752.42;78.57;;;0.80;99.90;;;;;;5068720;28;20394;-45
2021/04/08 00:32:29;;;;;;;751.63;78.20;;;0.70;99.90;;;;;;5069151;28;20410;-47
2021/04/08 00:34:56;;;;;;;752.72;78.35;;;0.70;99.90;;;;;;5066535;28;20389;-46
2021/04/08 00:37:22;;;;;;;751.95;77.82;;;0.60;99.90;;;;;;5071155;28;20397;-46
2021/04/08 00:39:48;;;;;;;753.27;78.17;;;0.60;99.90;;;;;;5072510;28;20386;-47
2021/04/08 00:42:15;;;;;;;751.92;78.72;;;0.50;99.90;;;;;;5069268;28;20394;-46
2021/04/08 00:44:41;;;;;;;753.33;77.93;;;0.50;99.90;;;;;;5069419;28;20394;-46
2021/04/08 00:47:07;;;;;;;751.40;77.83;;;0.50;99.90;;;;;;5065905;28;20390;-46
2021/04/08 00:49:33;;;;;;;752.08;79.15;;;0.40;99.90;;;;;;5066688;28;20378;-46
2021/04/08 00:51:59;;;;;;;750.17;79.78;;;0.40;99.90;;;;;;5068651;28;20392;-47
2021/04/08 00:54:25;;;;;;;754.33;80.85;;;0.40;99.90;;;;;;5067543;28;20411;-46
2021/04/08 00:56:52;;;;;;;754.78;79.45;;;0.30;99.90;;;;;;5088169;28;20378;-46
2021/04/08 00:59:19;;;;;;;754.97;80.78;;;0.30;99.90;;;;;;5071102;28;20406;-46
2021/04/08 01:01:45;;;;;;;755.20;79.93;;;0.20;99.90;;;;;;5072024;28;20394;-46
2021/04/08 01:04:11;;;;;;;747.95;78.95;;;0.20;99.90;;;;;;5065419;28;20399;-46
2021/04/08 01:06:37;;;;;;;751.63;77.50;;;0.20;99.90;;;;;;5062806;28;20385;-46
2021/04/08 01:09:05;;;;;;;748.40;78.70;;;0.20;99.90;;;;;;5070215;28;20386;-47
2021/04/08 01:11:31;;;;;;;753.00;79.57;;;0.10;99.90;;;;;;5064276;28;20380;-46
2021/04/08 01:13:57;;;;;;;746.60;77.57;;;0.10;99.90;;;;;;5067729;28;20418;-47
2021/04/08 01:16:34;;;;;;;747.93;78.20;;;0.10;99.90;;;;;;5046800;28;20382;-45
2021/04/08 01:19:08;;;;;;;739.53;76.23;;;0.00;99.90;;;;;;5078734;28;20379;-47
2021/04/08 01:21:46;;;;;;;734.60;74.53;;;0.00;99.90;;;;;;5061635;28;20378;-47
2021/04/08 01:24:38;;;;;;;735.22;74.70;;;0.00;99.90;;;;;;5087348;28;20378;-47
2021/04/08 01:27:37;;;;;;;736.35;75.03;;;0.00;99.90;;;;;;5067670;28;20394;-48
2021/04/08 01:30:19;;;;;;;744.88;76.95;;;0.00;99.90;;;;;;5067395;28;20401;-46
2021/04/08 01:32:52;;;;;;;743.55;77.53;;;0.00;99.90;;;;;;5070450;28;20753;-46
2021/04/08 01:35:21;;;;;;;748.83;78.63;;;-0.10;99.90;;;;;;5063266;28;20386;-49
2021/04/08 01:38:21;;;;;;;745.03;76.97;;;-0.10;99.90;;;;;;5070877;28;20393;-48
2021/04/08 01:40:47;;;;;;;736.47;75.35;;;-0.10;99.90;;;;;;5069391;28;20393;-49
2021/04/08 01:43:15;;;;;;;726.35;74.10;;;0.00;99.90;;;;;;5079731;28;20403;-47
2021/04/08 01:45:41;;;;;;;725.78;74.45;;;0.00;99.90;;;;;;5082619;28;20751;-49
2021/04/08 01:48:07;;;;;;;741.45;74.75;;;0.00;99.90;;;;;;5068738;28;20740;-46
2021/04/08 01:50:34;;;;;;;727.00;78.75;;;-0.10;99.90;;;;;;5087343;28;20379;-49
2021/04/08 01:53:00;;;;;;;753.60;79.90;;;-0.20;99.90;;;;;;5062680;28;20417;-46
2021/04/08 01:55:27;;;;;;;748.55;78.22;;;-0.20;99.90;;;;;;5085865;28;20382;-47
2021/04/08 01:57:53;;;;;;;745.35;77.50;;;-0.20;99.90;;;;;;5080355;28;20893;-46
2021/04/08 02:00:20;;;;;;;740.72;76.65;;;-0.20;99.90;;;;;;5062153;28;20386;-45
2021/04/08 02:02:47;;;;;;;742.85;74.45;;;-0.10;99.90;;;;;;5067424;28;20398;-47
2021/04/08 02:05:15;;;;;;;739.50;74.07;;;-0.20;99.90;;;;;;5067662;28;20382;-46
2021/04/08 02:07:41;;;;;;;740.60;77.30;;;-0.30;99.90;;;;;;5062807;28;20402;-47
2021/04/08 02:10:09;;;;;;;742.35;76.93;;;-0.40;99.90;;;;;;5062834;28;20380;-46
2021/04/08 02:12:39;;;;;;;745.00;76.60;;;-0.50;99.90;;;;;;5070372;28;20382;-48
2021/04/08 02:15:08;;;;;;;746.40;77.13;;;-0.50;99.90;;;;;;5047429;28;20854;-46
2021/04/08 02:17:34;;;;;;;743.83;77.32;;;-0.50;99.90;;;;;;5062272;28;20386;-47
2021/04/08 02:20:09;;;;;;;744.78;77.43;;;-0.50;99.90;;;;;;5067594;28;20727;-49
2021/04/08 02:22:42;;;;;;;741.60;77.57;;;-0.50;99.90;;;;;;5082708;28;20390;-47
2021/04/08 02:25:09;;;;;;;749.05;75.57;;;-0.50;99.90;;;;;;5066475;28;20382;-47
2021/04/08 02:27:41;;;;;;;739.97;74.43;;;-0.40;99.90;;;;;;5068742;28;20386;-48
2021/04/08 02:30:13;;;;;;;738.58;74.72;;;-0.40;99.90;;;;;;5069315;28;20762;-46
2021/04/08 02:32:39;;;;;;;730.30;73.13;;;-0.50;99.90;;;;;;5067764;28;20386;-46
2021/04/08 02:35:16;;;;;;;730.80;74.07;;;-0.40;99.90;;;;;;5068059;28;20401;-46
2021/04/08 02:37:43;;;;;;;731.65;74.68;;;-0.50;99.90;;;;;;5059534;28;20403;-46
2021/04/08 02:40:10;;;;;;;733.95;74.32;;;-0.50;99.90;;;;;;5069619;28;20386;-50
2021/04/08 02:42:37;;;;;;;734.45;74.30;;;-0.50;99.90;;;;;;5068728;28;20387;-47
2021/04/08 02:45:04;;;;;;;737.15;74.50;;;-0.50;99.90;;;;;;5070218;28;20386;-47
2021/04/08 02:47:30;;;;;;;736.70;75.22;;;-0.50;99.90;;;;;;5068784;28;20393;-50
2021/04/08 02:49:56;;;;;;;733.97;75.55;;;-0.50;99.90;;;;;;5062392;28;20401;-50
2021/04/08 02:52:25;;;;;;;737.42;76.22;;;-0.50;99.90;;;;;;5082761;28;20386;-46
2021/04/08 02:55:07;;;;;;;735.33;75.70;;;-0.50;99.90;;;;;;5063349;28;20402;-49
2021/04/08 02:57:38;;;;;;;750.33;79.60;;;-0.50;99.90;;;;;;5068311;28;20386;-46
2021/04/08 03:00:08;;;;;;;754.55;88.50;;;-0.50;99.90;;;;;;5056543;28;20414;-46
2021/04/08 03:02:35;;;;;;;778.58;93.57;;;-0.40;99.90;;;;;;5066577;28;20394;-47
2021/04/08 03:05:02;;;;;;;782.72;92.82;;;-0.40;99.90;;;;;;5084740;28;20398;-46
2021/04/08 03:07:30;;;;;;;790.25;95.65;;;-0.40;99.90;;;;;;5061043;28;20746;-46
2021/04/08 03:09:56;;;;;;;778.35;90.78;;;-0.40;99.90;;;;;;5077580;28;20386;-46
2021/04/08 03:12:22;;;;;;;781.17;96.28;;;-0.50;99.90;;;;;;5081783;28;20393;-47
2021/04/08 03:14:52;;;;;;;779.33;93.18;;;-0.50;99.90;;;;;;5077056;28;20407;-49
2021/04/08 03:17:19;;;;;;;780.05;97.57;;;-0.40;99.90;;;;;;5075864;28;20394;-47
2021/04/08 03:19:45;;;;;;;771.33;91.53;;;-0.40;99.90;;;;;;5068514;28;20409;-46
2021/04/08 03:22:12;;;;;;;757.50;85.57;;;-0.40;99.90;;;;;;5075266;28;20382;-46
2021/04/08 03:24:38;;;;;;;789.25;97.75;;;-0.30;99.90;;;;;;5077557;28;20501;-48
2021/04/08 03:27:05;;;;;;;790.63;97.40;;;-0.30;99.90;;;;;;5081028;28;20389;-50
2021/04/08 03:29:31;;;;;;;774.42;92.20;;;-0.20;99.90;;;;;;5077465;28;20397;-46
2021/04/08 03:31:57;;;;;;;750.73;81.90;;;-0.10;99.90;;;;;;5075985;28;20394;-45
2021/04/08 03:34:24;;;;;;;746.72;79.13;;;0.10;99.90;;;;;;5076638;28;20406;-47
2021/04/08 03:36:50;;;;;;;737.47;76.95;;;0.20;99.90;;;;;;5056526;28;20385;-46
2021/04/08 03:39:16;;;;;;;740.75;76.72;;;0.20;99.90;;;;;;5068525;28;20378;-46
2021/04/08 03:41:43;;;;;;;739.78;76.63;;;0.20;99.90;;;;;;5085777;28;20389;-46
2021/04/08 03:44:12;;;;;;;751.97;81.45;;;0.20;99.90;;;;;;5062167;28;20393;-49
2021/04/08 03:46:40;;;;;;;776.20;87.72;;;0.10;99.90;;;;;;5069664;28;20747;-50
2021/04/08 03:49:07;;;;;;;802.83;105.72;;;0.10;99.90;;;;;;5069873;28;20378;-48
2021/04/08 03:51:37;;;;;;;821.85;125.70;;;0.00;99.90;;;;;;5067374;28;20391;-46
2021/04/08 03:54:06;;;;;;;836.05;137.07;;;-0.10;99.90;;;;;;5084114;28;20398;-46
2021/04/08 03:56:32;;;;;;;835.50;141.45;;;-0.20;99.90;;;;;;5064561;28;20866;-47
2021/04/08 03:58:58;;;;;;;835.35;139.10;;;-0.20;99.90;;;;;;5044274;28;20415;-46
2021/04/08 04:01:24;;;;;;;826.50;132.32;;;-0.20;99.90;;;;;;5041133;28;20874;-46
2021/04/08 04:03:50;;;;;;;820.35;125.35;;;-0.10;99.90;;;;;;5071904;28;20383;-47
2021/04/08 04:06:16;;;;;;;828.70;129.52;;;0.00;99.90;;;;;;5038062;28;20370;-46
2021/04/08 04:08:43;;;;;;;829.47;131.40;;;0.10;99.90;;;;;;5071836;28;20384;-47
2021/04/08 04:11:11;;;;;;;831.13;135.68;;;0.10;99.90;;;;;;5058717;28;20387;-48
2021/04/08 04:13:38;;;;;;;831.25;135.23;;;0.10;99.90;;;;;;5087775;28;20623;-47
2021/04/08 04:16:05;;;;;;;830.05;134.90;;;0.10;99.90;;;;;;5072848;28;20890;-47
2021/04/08 04:18:31;;;;;;;831.42;134.60;;;0.00;99.90;;;;;;5074078;28;20398;-47
2021/04/08 04:20:57;;;;;;;829.85;135.70;;;0.10;99.90;;;;;;5064482;28;20888;-47
2021/04/08 04:23:23;;;;;;;836.10;141.55;;;0.10;99.90;;;;;;5055150;28;20876;-45
2021/04/08 04:25:50;;;;;;;835.97;144.63;;;0.10;99.90;;;;;;5054434;28;20883;-48
2021/04/08 04:28:16;;;;;;;836.17;144.93;;;0.10;99.90;;;;;;5054150;28;20757;-50
2021/04/08 04:30:42;;;;;;;830.03;138.93;;;0.10;99.90;;;;;;5056244;28;20748;-47
2021/04/08 04:33:08;;;;;;;827.90;136.07;;;0.10;99.90;;;;;;5054105;28;20741;-47
2021/04/08 04:35:35;;;;;;;831.05;137.55;;;0.10;99.90;;;;;;5071911;28;20412;-48
2021/04/08 04:38:01;;;;;;;641.00;64.63;;;0.10;99.90;;;;;;5075134;28;20158;-45
2021/04/08 04:40:27;;;;;;;615.30;68.17;;;0.10;99.90;;;;;;5075118;28;20544;-47
2021/04/08 04:42:53;;;;;;;751.23;92.90;;;0.10;99.90;;;;;;5075130;28;20166;-45
2021/04/08 04:45:20;;;;;;;711.40;96.50;;;0.10;99.90;;;;;;5075333;28;20186;-45
2021/04/08 04:47:46;;;;;;;741.30;95.33;;;0.10;99.90;;;;;;5075333;28;20626;-45
2021/04/08 04:50:13;;;;;;;759.33;90.63;;;0.10;99.90;;;;;;5056876;28;20189;-46
2021/04/08 04:52:39;;;;;;;812.63;130.02;;;0.10;99.90;;;;;;5072723;28;20385;-45
2021/04/08 04:55:06;;;;;;;824.67;142.27;;;0.30;99.90;;;;;;5071709;28;20763;-48
2021/04/08 04:57:32;;;;;;;832.85;150.98;;;0.30;99.90;;;;;;5071192;28;20390;-45
2021/04/08 04:59:59;;;;;;;832.15;159.82;;;0.40;99.90;;;;;;5071529;28;20386;-46
2021/04/08 05:02:25;;;;;;;775.80;99.30;;;0.60;99.90;;;;;;5072437;28;20190;-46
2021/04/08 05:04:51;;;;;;;826.07;149.10;;;0.60;99.90;;;;;;5070470;28;20893;-47
2021/04/08 05:07:17;;;;;;;771.00;99.37;;;0.70;99.90;;;;;;5072768;28;20414;-46
2021/04/08 05:09:43;;;;;;;760.83;90.73;;;0.70;99.90;;;;;;5074768;28;20288;-46
2021/04/08 05:12:10;;;;;;;763.33;90.37;;;0.70;99.90;;;;;;5074361;28;20177;-46
2021/04/08 05:14:36;;;;;;;738.78;89.53;;;0.60;99.90;;;;;;5073415;28;20218;-45
2021/04/08 05:17:02;;;;;;;760.77;91.00;;;0.60;99.90;;;;;;5074582;28;20622;-45
2021/04/08 05:19:28;;;;;;;731.27;93.13;;;0.60;99.90;;;;;;5074215;28;20170;-46
2021/04/08 05:21:54;;;;;;;759.80;95.23;;;0.70;99.90;;;;;;5074370;28;20174;-45
2021/04/08 05:24:20;;;;;;;752.10;93.03;;;0.80;99.90;;;;;;5062566;28;20182;-45
2021/04/08 05:26:47;;;;;;;758.33;92.50;;;0.90;99.90;;;;;;5060979;28;20189;-48
2021/04/08 05:29:13;;;;;;;752.13;91.57;;;1.00;99.90;;;;;;5061859;28;20186;-48
2021/04/08 05:31:39;;;;;;;756.70;97.77;;;1.20;99.90;;;;;;5053404;28;20583;-46
2021/04/08 05:34:05;;;;;;;737.37;94.83;;;1.20;99.90;;;;;;5053222;28;20218;-46
2021/04/08 05:36:31;;;;;;;753.67;97.30;;;1.30;99.90;;;;;;5053694;28;20167;-46
2021/04/08 05:38:58;;;;;;;772.70;100.03;;;1.40;99.90;;;;;;5052950;28;20186;-46
2021/04/08 05:41:24;;;;;;;752.43;101.80;;;1.50;99.90;;;;;;5053618;28;20175;-50
2021/04/08 05:43:50;;;;;;;785.67;107.17;;;1.60;99.90;;;;;;5053585;28;20536;-46
2021/04/08 05:46:16;;;;;;;729.57;94.93;;;1.70;99.90;;;;;;5060516;28;20190;-46
2021/04/08 05:48:42;;;;;;;788.50;104.50;;;1.80;99.90;;;;;;5061612;28;20551;-49
2021/04/08 05:51:09;;;;;;;771.40;100.43;;;2.00;99.90;;;;;;5059624;28;20746;-49
2021/04/08 05:53:35;;;;;;;767.23;100.90;;;2.10;99.90;;;;;;5059451;28;20657;-46
2021/04/08 05:56:01;;;;;;;773.87;104.63;;;2.30;99.90;;;;;;5058336;28;20205;-47
2021/04/08 05:58:27;;;;;;;769.70;103.13;;;2.50;99.90;;;;;;5065496;28;20188;-46
2021/04/08 06:00:53;;;;;;;606.77;61.07;;;2.70;99.90;;;;;;5064101;28;20213;-46
2021/04/08 06:03:19;;;;;;;772.33;104.17;;;2.90;99.90;;;;;;5067795;28;20183;-49
2021/04/08 06:05:46;;;;;;;770.20;101.47;;;3.10;99.90;;;;;;5061923;28;20189;-47
2021/04/08 06:08:12;;;;;;;772.70;99.70;;;3.50;99.90;;;;;;5069366;28;20185;-47
2021/04/08 06:10:38;;;;;;;780.37;103.73;;;3.90;99.90;;;;;;5059328;28;20194;-46
2021/04/08 06:13:04;;;;;;;782.57;104.47;;;4.20;99.90;;;;;;5054695;28;20657;-48
2021/04/08 06:15:31;;;;;;;823.35;151.05;;;4.50;99.90;;;;;;5065414;28;20410;-49
2021/04/08 06:17:57;;;;;;;833.67;161.10;;;4.60;99.90;;;;;;5066077;28;20387;-48
2021/04/08 06:20:24;;;;;;;843.77;178.80;;;4.80;99.90;;;;;;5071867;28;20389;-49
2021/04/08 06:22:52;;;;;;;849.45;191.27;;;5.00;99.90;;;;;;5072062;28;20374;-46
2021/04/08 06:25:18;;;;;;;844.22;185.13;;;5.00;99.90;;;;;;5071775;28;20885;-46
2021/04/08 06:27:44;;;;;;;851.80;195.93;;;5.20;99.90;;;;;;5070951;28;20696;-47
2021/04/08 06:30:11;;;;;;;845.60;189.43;;;5.40;99.90;;;;;;5067137;28;20479;-50
2021/04/08 06:32:38;;;;;;;849.80;191.00;;;5.40;99.90;;;;;;5070461;28;20727;-48
2021/04/08 06:35:06;;;;;;;843.53;189.07;;;5.40;99.90;;;;;;5060377;28;20402;-46
2021/04/08 06:37:32;;;;;;;844.03;186.95;;;5.50;99.90;;;;;;5070398;28;20382;-46
2021/04/08 06:39:58;;;;;;;840.10;184.55;;;5.50;99.90;;;;;;5070143;28;20393;-46
2021/04/08 06:42:24;;;;;;;840.92;186.20;;;5.60;99.90;;;;;;5066076;28;20495;-47
2021/04/08 06:44:52;;;;;;;842.40;189.70;;;5.70;99.90;;;;;;5063038;28;20718;-47
2021/04/08 06:47:28;;;;;;;843.50;191.68;;;5.80;99.90;;;;;;5059904;28;20409;-49
2021/04/08 06:49:58;;;;;;;845.53;192.50;;;5.70;99.90;;;;;;5069839;28;20672;-46
2021/04/08 06:52:24;;;;;;;840.90;188.80;;;5.70;99.90;;;;;;5071205;28;20370;-46
2021/04/08 06:54:51;;;;;;;839.22;185.63;;;5.70;99.90;;;;;;5058377;28;20407;-48
2021/04/08 06:57:18;;;;;;;839.15;182.20;;;5.60;99.90;;;;;;5073090;28;20388;-47
2021/04/08 06:59:47;;;;;;;839.72;181.80;;;5.60;99.90;;;;;;5070278;28;20420;-47
2021/04/08 07:02:17;;;;;;;843.08;193.70;;;5.50;99.90;;;;;;5067751;28;20382;-46
2021/04/08 07:04:43;;;;;;;843.97;191.00;;;5.70;99.90;;;;;;5069437;28;20393;-47
2021/04/08 07:07:09;;;;;;;840.97;191.02;;;6.00;99.90;;;;;;5059335;28;20916;-46
2021/04/08 07:09:36;;;;;;;845.30;195.93;;;5.90;99.90;;;;;;5077767;28;20390;-50
2021/04/08 07:12:02;;;;;;;843.53;194.27;;;5.80;99.90;;;;;;5070361;28;20416;-46
2021/04/08 07:14:28;;;;;;;843.53;193.55;;;5.80;99.90;;;;;;5070955;28;20425;-47
2021/04/08 07:16:55;;;;;;;841.50;189.30;;;6.10;99.90;;;;;;5071322;28;20379;-50
2021/04/08 07:19:21;;;;;;;842.03;187.30;;;5.90;99.90;;;;;;5070027;28;20897;-46
2021/04/08 07:21:47;;;;;;;838.30;192.50;;;6.20;99.90;;;;;;5071121;28;20393;-50
2021/04/08 07:24:15;;;;;;;833.45;181.00;;;6.10;99.90;;;;;;5067480;28;20408;-49
2021/04/08 07:27:00;;;;;;;841.95;190.15;;;6.00;99.90;;;;;;5067804;28;20413;-48
2021/04/08 07:29:38;;;;;;;;;;;6.10;99.90;;;;;;5062971;28;20385;-46
2021/04/08 07:32:10;;;;;;;843.85;202.00;;;6.30;99.90;;;;;;5068541;28;20396;-46
2021/04/08 07:34:41;;;;;;;;;;;6.50;99.90;;;;;;5050929;28;20767;-46
2021/04/08 07:37:07;;;;;;;;;;;6.50;99.90;;;;;;5060701;28;20381;-47
2021/04/08 07:39:40;;;;;;;;;;;6.70;99.90;;;;;;5065289;28;20731;-50
2021/04/08 07:42:13;;;;;;;;;;;6.30;99.90;;;;;;5067460;28;20715;-46
2021/04/08 07:44:45;;;;;;;;;;;6.00;99.90;;;;;;5069808;28;25100;-48
2021/04/08 07:47:14;;;;;;;;;;;6.00;99.90;;;;;;5069839;28;20356;-49
2021/04/08 07:49:40;;;;;;;831.60;184.40;;;6.40;99.90;;;;;;5059905;28;20410;-46
2021/04/08 07:52:23;;;;;;;;;;;6.20;99.90;;;;;;5056416;28;20858;-46
2021/04/08 07:55:04;;;;;;;;;;;6.60;99.90;;;;;;5055391;28;20401;-47
2021/04/08 07:57:30;;;;;;;;;;;6.40;99.90;;;;;;5052809;28;20388;-46
2021/04/08 07:59:57;;;;;;;;;;;6.40;99.90;;;;;;5057452;28;20397;-47
2021/04/08 08:02:24;;;;;;;;;;;6.80;99.90;;;;;;5055756;28;20394;-47
2021/04/08 08:04:50;;;;;;;860.00;241.80;;;6.80;99.90;;;;;;5060973;28;20517;-49
2021/04/08 08:07:26;;;;;;;864.67;242.63;;;7.40;99.90;;;;;;5080437;28;20391;-46
2021/04/08 08:09:53;;;;;;;856.50;256.50;;;7.50;99.90;;;;;;5060652;28;20372;-48
2021/04/08 08:12:19;;;;;;;905.67;369.83;;;7.60;99.90;;;;;;5070071;28;20735;-47
2021/04/08 08:14:45;;;;;;;846.40;243.63;;;8.00;99.90;;;;;;5055540;28;20209;-47
2021/04/08 08:17:13;;;;;;;854.95;273.80;;;8.10;99.90;;;;;;5066358;28;20186;-46
2021/04/08 08:19:42;;;;;;;856.78;304.48;;;8.40;99.90;;;;;;5075515;28;20198;-47
2021/04/08 08:22:33;;;;;;;863.65;326.95;;;8.00;99.40;;;;;;5075690;28;20166;-47
2021/04/08 08:25:00;;;;;;;868.13;345.90;;;7.60;99.90;;;;;;5074170;28;20182;-48
2021/04/08 08:27:38;;;;;;;868.35;354.08;;;7.30;99.80;;;;;;5075312;28;20170;-46
2021/04/08 08:30:06;;;;;;;862.90;343.50;;;7.70;99.40;;;;;;5075474;28;20217;-48
2021/04/08 08:32:32;;;;;;;863.92;339.17;;;7.70;98.80;;;;;;5075464;28;20190;-50
2021/04/08 08:34:59;;;;;;;875.28;382.90;;;8.20;99.40;;;;;;5075026;28;20202;-47
2021/04/08 08:37:25;;;;;;;874.10;389.13;;;8.80;97.90;;;;;;5074980;28;20170;-46
2021/04/08 08:39:51;;;;;;;875.25;397.90;;;8.40;97.60;;;;;;5073677;28;20178;-46
2021/04/08 08:42:18;;;;;;;876.63;400.10;;;8.10;98.00;;;;;;5080173;28;20162;-47
2021/04/08 08:44:45;;;;;;;876.30;405.40;;;8.30;97.80;;;;;;5075955;28;20177;-48
2021/04/08 08:47:34;;;;;;;885.22;436.10;;;8.60;97.10;;;;;;5065088;28;20178;-47
2021/04/08 08:50:08;;;;;;;890.47;449.95;;;9.20;96.60;;;;;;5076622;28;20171;-51
2021/04/08 08:52:36;;;;;;;892.85;452.42;;;9.30;95.80;;;;;;5063521;28;20154;-47
2021/04/08 08:55:14;;;;;;;893.05;459.98;;;8.80;96.50;;;;;;5075413;28;20205;-47
2021/04/08 08:57:41;;;;;;;898.35;464.48;;;9.30;96.20;;;;;;5056328;28;20195;-47
2021/04/08 09:00:08;;;;;;;881.33;422.73;;;9.30;95.00;;;;;;5061040;28;20178;-50
2021/04/08 09:02:38;;;;;;;888.03;416.88;;;8.50;95.90;;;;;;5054162;28;20203;-46
2021/04/08 09:05:10;;;;;;;885.40;397.88;;;7.90;96.40;;;;;;5061921;28;20183;-46
2021/04/08 09:07:36;;;;;;;875.47;381.70;;;8.90;96.40;;;;;;5072017;28;20209;-48
2021/04/08 09:10:04;;;;;;;884.42;393.52;;;9.30;95.80;;;;;;5060317;28;20197;-47
2021/04/08 09:12:31;;;;;;;889.15;401.65;;;9.10;94.80;;;;;;5067976;28;20206;-48
2021/04/08 09:14:57;;;;;;;885.25;416.40;;;8.30;96.20;;;;;;5050285;28;20210;-47
2021/04/08 09:17:45;;;;;;;891.63;439.73;;;8.70;95.60;;;;;;5057049;28;20186;-46
2021/04/08 09:20:12;;;;;;;890.42;437.42;;;9.10;94.60;;;;;;5053728;28;20200;-50
2021/04/08 09:22:51;;;;;;;896.38;451.55;;;9.50;92.70;;;;;;5076601;28;20180;-47
2021/04/08 09:25:18;;;;;;;895.60;440.17;;;9.10;92.30;;;;;;5071818;28;20480;-48
2021/04/08 09:27:55;;;;;;;904.20;488.95;;;9.40;92.00;;;;;;5059368;28;20537;-47
2021/04/08 09:30:32;;;;;;;919.10;547.42;;;10.10;92.30;;;;;;5054279;28;20217;-48
2021/04/08 09:32:58;;;;;;;939.72;615.22;;;10.80;90.80;;;;;;5066983;28;20174;-48
2021/04/08 09:35:28;;;;;;;940.20;612.90;;;10.50;91.40;;;;;;5072982;28;20194;-47
2021/04/08 09:38:00;;;;;;;937.25;620.53;;;9.70;92.10;;;;;;5067825;28;20534;-47
2021/04/08 09:40:30;;;;;;;946.55;649.83;;;10.30;90.10;;;;;;5064785;28;20175;-51
2021/04/08 09:43:00;;;;;;;956.42;679.20;;;9.80;89.50;;;;;;5054072;28;20183;-48
2021/04/08 09:45:27;;;;;;;949.88;667.67;;;10.00;89.70;;;;;;5071093;28;20642;-49
2021/04/08 09:48:25;;;;;;;963.80;690.95;;;10.80;89.10;;;;;;5054333;28;20206;-53
2021/04/08 09:50:52;;;;;;;946.78;658.10;;;10.00;84.60;;;;;;5059083;28;20639;-47
2021/04/08 09:53:21;;;;;;;967.33;696.72;;;9.70;90.10;;;;;;5068658;28;20178;-49
2021/04/08 09:55:58;;;;;;;976.03;741.58;;;11.00;86.30;;;;;;5054506;28;20120;-48
2021/04/08 09:58:28;;;;;;;984.65;769.92;;;11.30;80.60;;;;;;5062342;28;20171;-47
2021/04/08 10:00:56;;;;;;;985.50;783.65;;;11.70;81.30;;;;;;5079343;28;20556;-48
2021/04/08 10:03:32;;;;;;;984.38;782.97;;;11.60;78.60;;;;;;5072965;28;20181;-48
2021/04/08 10:05:59;;;;;;;986.15;772.55;;;11.20;77.00;;;;;;5062643;28;20190;-47
2021/04/08 10:08:33;;;;;;;974.85;739.55;;;10.10;80.70;;;;;;5064915;28;20545;-49
2021/04/08 10:10:59;;;;;;;973.72;733.75;;;10.90;81.20;;;;;;5066994;28;20166;-47
2021/04/08 10:13:30;;;;;;;959.40;709.10;;;10.90;79.40;;;;;;5070541;28;20634;-47
2021/04/08 10:15:59;;;;;;;;;;;9.60;77.70;;;;;;5063305;28;20234;-47
2021/04/08 10:18:26;;;;;;;;;;;9.90;77.40;;;;;;5067558;28;20680;-47
2021/04/08 10:20:54;;;;;;;1049.90;916.30;;;10.20;74.30;;;;;;5051146;28;20423;-49
2021/04/08 10:23:38;;;;;;;;;;;10.70;74.20;;;;;;5057078;28;20187;-50
2021/04/08 10:26:24;;;;;;;;;;;10.90;76.70;;;;;;5051956;28;20917;-48
2021/04/08 10:28:51;;;;;;;;;;;10.90;76.70;;;;;;5048996;28;20401;-50
2021/04/08 10:31:27;;;;;;;;;;;9.90;76.10;;;;;;5057152;28;20225;-48
2021/04/08 10:33:55;;;;;;;;;;;11.30;77.60;;;;;;5048257;28;25169;-50
2021/04/08 10:36:39;;;;;;;;;;;12.40;71.80;;;;;;5055336;28;20404;-48
2021/04/08 10:39:05;;;;;;;;;;;12.20;67.70;;;;;;5062052;28;20882;-48
2021/04/08 10:41:31;;;;;;;;;;;11.30;69.80;;;;;;5062809;28;20202;-49
2021/04/08 10:44:17;;;;;;;;;;;11.90;68.80;;;;;;5053371;28;20402;-51
2021/04/08 10:46:43;;;;;;;;;;;12.00;68.00;;;;;;5050709;28;20389;-51
2021/04/08 10:49:09;;;;;;;;;;;11.10;66.80;;;;;;5050428;28;20392;-49
2021/04/08 10:51:35;;;;;;;;;;;11.50;68.70;;;;;;5059451;28;20178;-49
2021/04/08 10:54:02;;;;;;;1122.00;999.87;;;12.20;68.90;;;;;;5059337;28;20416;-48
2021/04/08 10:56:28;;;;;;;1113.50;992.20;;;10.70;68.30;;;;;;5069259;28;20882;-48
2021/04/08 10:58:54;;;;;;;;;;;10.90;69.30;;;;;;5063056;28;20530;-52
2021/04/08 11:01:29;;;;;;;;;;;10.60;71.00;;;;;;5064045;28;20406;-49
2021/04/08 11:04:05;;;;;;;;;;;11.20;66.90;;;;;;5068340;28;20200;-49
2021/04/08 11:06:32;;;;;;;;;;;10.50;66.80;;;;;;5057416;28;20190;-48
2021/04/08 11:08:58;;;;;;;952.60;667.10;;;10.40;66.90;;;;;;5067025;28;20192;-49
2021/04/08 11:11:25;;;;;;;955.50;670.90;;;10.80;67.90;;;;;;5054846;28;20667;-51
2021/04/08 11:13:51;;;;;;;;;;;11.30;67.10;;;;;;5067790;28;20509;-48
2021/04/08 11:16:17;;;;;;;953.70;656.67;;;11.10;67.40;;;;;;5081634;28;20278;-49
2021/04/08 11:18:44;;;;;;;947.10;639.90;;;10.80;67.20;;;;;;5058432;28;20197;-49
2021/04/08 11:21:10;;;;;;;945.10;645.00;;;10.60;66.30;;;;;;5066900;28;20189;-51
2021/04/08 11:23:37;;;;;;;960.00;685.80;;;12.60;68.20;;;;;;5066460;28;20182;-48
2021/04/08 11:26:09;;;;;;;979.83;749.47;;;12.80;66.10;;;;;;5073938;28;20159;-50
2021/04/08 11:28:41;;;;;;;988.10;765.00;;;13.20;61.70;;;;;;5062441;28;20201;-50
2021/04/08 11:31:26;;;;;;;983.85;767.75;;;14.20;61.90;;;;;;5062573;28;20218;-48
2021/04/08 11:33:59;;;;;;;975.83;748.27;;;13.70;62.40;;;;;;5060748;28;20182;-52
2021/04/08 11:36:26;;;;;;;975.35;743.55;;;12.50;59.80;;;;;;5063987;28;20195;-50
2021/04/08 11:38:53;;;;;;;969.65;726.58;;;12.40;62.00;;;;;;5056510;28;20387;-52
2021/04/08 11:41:19;;;;;;;953.20;664.20;;;12.40;62.20;;;;;;5058507;28;20193;-49
2021/04/08 11:43:48;;;;;;;952.10;656.80;;;11.00;64.80;;;;;;5068802;28;20174;-48
2021/04/08 11:46:25;;;;;;;944.00;636.30;;;12.60;64.50;;;;;;5053380;28;20201;-50
2021/04/08 11:48:52;;;;;;;938.75;635.65;;;11.70;63.00;;;;;;5055202;28;20661;-48
2021/04/08 11:51:23;;;;;;;936.90;581.60;;;11.90;59.20;;;;;;5063876;28;20159;-47
2021/04/08 11:53:51;;;;;;;918.40;509.50;;;10.20;62.00;;;;;;5064242;28;20171;-50
2021/04/08 11:56:33;;;;;;;903.37;475.33;;;10.10;63.50;;;;;;5054537;28;20210;-50
2021/04/08 11:59:21;;;;;;;913.45;485.35;;;10.70;64.20;;;;;;5069596;28;20197;-48
2021/04/08 12:01:52;;;;;;;903.90;464.95;;;9.90;62.40;;;;;;5063826;28;20203;-50
2021/04/08 12:04:19;;;;;;;900.70;436.58;;;10.20;64.40;;;;;;5059393;28;20263;-48
2021/04/08 12:06:59;;;;;;;909.97;461.80;;;10.90;63.70;;;;;;5054826;28;20174;-49
2021/04/08 12:09:36;;;;;;;993.88;709.58;;;11.10;62.10;;;;;;5074113;28;20382;-48
2021/04/08 12:12:03;;;;;;;1004.35;725.38;;;9.90;61.90;;;;;;5053415;28;20392;-48
2021/04/08 12:14:29;;;;;;;996.20;706.97;;;10.10;64.90;;;;;;5057252;28;20376;-47
2021/04/08 12:17:06;;;;;;;997.72;710.13;;;9.40;64.10;;;;;;5064329;28;20408;-47
2021/04/08 12:19:32;;;;;;;1008.53;726.28;;;10.40;63.60;;;;;;5049546;28;20403;-49
2021/04/08 12:22:03;;;;;;;904.40;417.33;;;9.80;63.00;;;;;;5068612;28;20170;-47
2021/04/08 12:24:29;;;;;;;826.63;146.83;;;9.10;64.20;;;;;;5057859;28;20063;-47
2021/04/08 12:26:56;;;;;;;977.45;613.97;;;8.50;68.70;;;;;;5082909;28;20405;-48
2021/04/08 12:29:22;;;;;;;978.92;592.95;;;8.40;67.40;;;;;;5058522;28;20389;-48
2021/04/08 12:31:53;;;;;;;973.08;567.05;;;8.00;68.20;;;;;;5065956;28;20390;-47
2021/04/08 12:34:21;;;;;;;959.67;533.13;;;8.20;71.60;;;;;;5066444;28;20391;-49
2021/04/08 12:36:47;;;;;;;959.07;515.40;;;8.00;68.90;;;;;;5065121;28;20421;-48